createdAt,value
2022-09-28T00:00:14.701Z,73
2022-09-28T00:01:14.697Z,73.4
2022-09-28T00:02:14.988Z,73.5
2022-09-28T00:03:14.696Z,73.8
2022-09-28T00:04:14.698Z,73.8
2022-09-28T00:05:14.701Z,74
2022-09-28T00:06:14.695Z,74.4
2022-09-28T00:07:14.692Z,74.1
2022-09-28T00:08:14.699Z,73.9
2022-09-28T00:09:14.780Z,74.2
2022-09-28T00:10:14.700Z,74.3
2022-09-28T00:11:14.707Z,74.3
2022-09-28T00:12:14.700Z,73.8
2022-09-28T00:13:14.705Z,73.8
2022-09-28T00:14:14.699Z,73.9
2022-09-28T00:15:14.741Z,74.1
2022-09-28T00:16:14.838Z,74
2022-09-28T00:17:14.700Z,74.2
2022-09-28T00:18:14.695Z,74.5
2022-09-28T00:19:14.935Z,74.9
2022-09-28T00:20:14.705Z,75.3
2022-09-28T00:21:14.694Z,75.6
2022-09-28T00:22:14.704Z,75.8
2022-09-28T00:23:14.703Z,75.9
2022-09-28T00:24:14.712Z,76
2022-09-28T00:25:14.698Z,75.9
2022-09-28T00:26:14.707Z,75.6
2022-09-28T00:27:14.702Z,75.1
2022-09-28T00:28:14.705Z,75
2022-09-28T00:29:14.735Z,75.1
2022-09-28T00:30:14.728Z,75.1
2022-09-28T00:31:14.759Z,74.8
2022-09-28T00:32:14.707Z,74.4
2022-09-28T00:33:14.714Z,74.3
2022-09-28T00:34:14.698Z,74.6
2022-09-28T00:35:14.725Z,74.3
2022-09-28T00:36:14.704Z,73.9
2022-09-28T00:37:14.732Z,73.7
2022-09-28T00:38:14.707Z,73.9
2022-09-28T00:39:14.781Z,73.7
2022-09-28T00:40:14.750Z,73.7
2022-09-28T00:41:14.702Z,73.5
2022-09-28T00:42:14.702Z,73.5
2022-09-28T00:43:14.708Z,73.9
2022-09-28T00:45:14.709Z,73.7
2022-09-28T00:46:14.817Z,73.7
2022-09-28T00:47:14.709Z,73.6
2022-09-28T00:48:14.706Z,73.8
2022-09-28T00:49:14.865Z,73.6
2022-09-28T00:50:14.697Z,73.1
2022-09-28T00:51:14.709Z,73.2
2022-09-28T00:52:14.709Z,73
2022-09-28T00:53:14.706Z,73
2022-09-28T00:54:14.717Z,73
2022-09-28T00:55:14.703Z,72.8
2022-09-28T00:56:14.699Z,73.3
2022-09-28T00:57:14.704Z,73.1
2022-09-28T00:58:14.711Z,73.2
2022-09-28T00:59:14.764Z,72.8
2022-09-28T01:00:14.710Z,73
2022-09-28T01:01:14.799Z,73.1
2022-09-28T01:02:14.789Z,72.9
2022-09-28T01:03:14.714Z,72.8
2022-09-28T01:04:14.705Z,72.7
2022-09-28T01:05:14.703Z,72.9
2022-09-28T01:06:14.723Z,72.9
2022-09-28T01:07:14.702Z,72.5
2022-09-28T01:08:14.723Z,72.3
2022-09-28T01:09:14.794Z,72.6
2022-09-28T01:10:14.709Z,72.8
2022-09-28T01:11:14.701Z,72.5
2022-09-28T01:12:14.721Z,72.6
2022-09-28T01:13:14.704Z,72.5
2022-09-28T01:14:14.700Z,72.8
2022-09-28T01:15:14.715Z,72.9
2022-09-28T01:16:14.863Z,72.7
2022-09-28T01:17:14.710Z,72.7
2022-09-28T01:18:14.709Z,72.4
2022-09-28T01:19:14.808Z,72.1
2022-09-28T01:20:14.714Z,72.3
2022-09-28T01:21:14.702Z,72.4
2022-09-28T01:22:14.709Z,72.4
2022-09-28T01:23:14.717Z,72.4
2022-09-28T01:24:14.711Z,72.5
2022-09-28T01:25:14.703Z,72.5
2022-09-28T01:26:14.710Z,72.5
2022-09-28T01:27:14.703Z,72.7
2022-09-28T01:28:14.715Z,72.9
2022-09-28T01:29:14.763Z,72.7
2022-09-28T01:30:14.710Z,73
2022-09-28T01:31:14.789Z,73
2022-09-28T01:32:14.739Z,73.1
2022-09-28T01:33:14.711Z,73.3
2022-09-28T01:34:14.702Z,73.4
2022-09-28T01:35:14.715Z,73.3
2022-09-28T01:36:14.707Z,73.5
2022-09-28T01:37:14.720Z,73.3
2022-09-28T01:38:14.713Z,73.1
2022-09-28T01:39:14.894Z,72.6
2022-09-28T01:40:14.836Z,72.7
2022-09-28T01:41:14.707Z,72.7
2022-09-28T01:42:14.706Z,73
2022-09-28T01:43:14.718Z,73.1
2022-09-28T01:44:14.711Z,73.3
2022-09-28T01:45:14.729Z,73.6
2022-09-28T01:46:14.822Z,73.9
2022-09-28T01:47:14.776Z,73.9
2022-09-28T01:48:14.716Z,73.9
2022-09-28T01:49:14.856Z,74.1
2022-09-28T01:50:14.734Z,73.9
2022-09-28T01:51:14.722Z,73.9
2022-09-28T01:52:14.715Z,73.6
2022-09-28T01:53:14.713Z,73.5
2022-09-28T01:54:14.721Z,73.6
2022-09-28T01:55:14.718Z,73.4
2022-09-28T01:56:14.716Z,73.4
2022-09-28T01:57:14.709Z,73.7
2022-09-28T01:58:14.717Z,74
2022-09-28T01:59:14.890Z,74
2022-09-28T02:00:14.717Z,74.1
2022-09-28T02:01:14.859Z,74.3
2022-09-28T02:02:14.828Z,74.6
2022-09-28T02:03:14.740Z,74.4
2022-09-28T02:04:14.718Z,74.9
2022-09-28T02:05:14.717Z,75
2022-09-28T02:06:14.725Z,75
2022-09-28T02:07:14.722Z,75.2
2022-09-28T02:08:14.718Z,75.5
2022-09-28T02:09:14.779Z,75.8
2022-09-28T02:10:14.719Z,75.8
2022-09-28T02:11:14.715Z,75.7
2022-09-28T02:12:14.714Z,75.6
2022-09-28T02:13:14.718Z,75.7
2022-09-28T02:14:14.722Z,75.7
2022-09-28T02:15:14.713Z,76
2022-09-28T02:16:14.817Z,76.5
2022-09-28T02:17:14.718Z,76.6
2022-09-28T02:18:14.767Z,76.8
2022-09-28T02:19:14.787Z,76.3
2022-09-28T02:20:14.718Z,76.3
2022-09-28T02:21:14.732Z,76.4
2022-09-28T02:22:14.719Z,76.5
2022-09-28T02:23:14.713Z,76.6
2022-09-28T02:25:14.714Z,76.9
2022-09-28T02:26:14.720Z,76.9
2022-09-28T02:27:14.713Z,76.9
2022-09-28T02:28:14.714Z,76.9
2022-09-28T02:29:14.921Z,76.6
2022-09-28T02:30:14.725Z,76.4
2022-09-28T02:31:14.802Z,76.6
2022-09-28T02:32:14.722Z,76.6
2022-09-28T02:33:14.713Z,76.7
2022-09-28T02:34:14.772Z,76.4
2022-09-28T02:35:14.712Z,76.2
2022-09-28T02:36:14.727Z,76.2
2022-09-28T02:37:14.711Z,76.1
2022-09-28T02:38:14.714Z,76.2
2022-09-28T02:39:14.822Z,76
2022-09-28T02:40:14.889Z,76
2022-09-28T02:41:14.711Z,75.6
2022-09-28T02:42:14.721Z,75.6
2022-09-28T02:43:14.724Z,75.5
2022-09-28T02:44:14.709Z,75.6
2022-09-28T02:45:14.715Z,75.8
2022-09-28T02:46:14.830Z,75.4
2022-09-28T02:47:14.716Z,75.1
2022-09-28T02:48:14.723Z,75.2
2022-09-28T02:49:30.287Z,75
2022-09-28T02:50:14.724Z,75.2
2022-09-28T02:51:14.746Z,75.3
2022-09-28T02:52:14.720Z,75.4
2022-09-28T02:53:14.712Z,75.1
2022-09-28T02:54:18.680Z,75.2
2022-09-28T02:55:14.718Z,74.9
2022-09-28T02:56:14.717Z,74.8
2022-09-28T02:57:14.717Z,74.6
2022-09-28T02:58:14.727Z,74.5
2022-09-28T02:59:14.779Z,74.4
2022-09-28T03:00:14.719Z,74.5
2022-09-28T03:01:14.801Z,74.6
2022-09-28T03:02:14.786Z,74.5
2022-09-28T03:03:14.730Z,74.1
2022-09-28T03:04:14.715Z,74
2022-09-28T03:05:14.744Z,74.1
2022-09-28T03:06:14.715Z,73.9
2022-09-28T03:07:14.709Z,73.7
2022-09-28T03:08:14.724Z,73.7
2022-09-28T03:09:14.738Z,73.8
2022-09-28T03:10:14.724Z,73.8
2022-09-28T03:11:14.716Z,74
2022-09-28T03:12:14.722Z,74.1
2022-09-28T03:13:14.725Z,74
2022-09-28T03:14:14.715Z,73.7
2022-09-28T03:15:14.726Z,74.2
2022-09-28T03:16:14.843Z,74
2022-09-28T03:17:14.720Z,74.2
2022-09-28T03:18:14.719Z,74.2
2022-09-28T03:19:14.757Z,74.1
2022-09-28T03:20:14.718Z,73.7
2022-09-28T03:21:14.725Z,73.6
2022-09-28T03:22:14.719Z,73.5
2022-09-28T03:23:30.206Z,73.5
2022-09-28T03:24:14.722Z,73.4
2022-09-28T03:25:14.722Z,73.5
2022-09-28T03:26:14.735Z,73.2
2022-09-28T03:28:14.737Z,73.4
2022-09-28T03:29:14.871Z,73.4
2022-09-28T03:30:14.719Z,73.2
2022-09-28T03:31:14.782Z,72.9
2022-09-28T03:32:14.727Z,72.8
2022-09-28T03:33:14.725Z,72.9
2022-09-28T03:34:14.718Z,73.4
2022-09-28T03:35:14.721Z,73.7
2022-09-28T03:36:14.760Z,73.8
2022-09-28T03:37:14.719Z,74.3
2022-09-28T03:38:14.720Z,74.7
2022-09-28T03:39:14.828Z,75.1
2022-09-28T03:40:14.911Z,74.9
2022-09-28T03:42:14.722Z,74.8
2022-09-28T03:43:14.723Z,74.8
2022-09-28T03:44:14.748Z,74.7
2022-09-28T03:45:14.719Z,74.6
2022-09-28T03:46:14.823Z,74.8
2022-09-28T03:47:14.724Z,74.7
2022-09-28T03:48:14.724Z,74.5
2022-09-28T03:49:14.879Z,74.4
2022-09-28T03:50:14.727Z,74.4
2022-09-28T03:51:14.727Z,74.6
2022-09-28T03:52:14.734Z,74.9
2022-09-28T03:53:14.716Z,74.6
2022-09-28T03:54:14.735Z,74.7
2022-09-28T03:55:14.721Z,74.4
2022-09-28T03:56:14.747Z,74.5
2022-09-28T03:57:14.726Z,74.1
2022-09-28T03:58:14.732Z,74.3
2022-09-28T03:59:14.781Z,74.5
2022-09-28T04:00:14.718Z,74.6
2022-09-28T04:01:17.381Z,74.8
2022-09-28T04:02:14.812Z,74.9
2022-09-28T04:03:14.724Z,74.7
2022-09-28T04:04:14.731Z,74.7
2022-09-28T04:05:14.727Z,74.7
2022-09-28T04:07:14.748Z,74.2
2022-09-28T04:08:14.728Z,74.4
2022-09-28T04:09:14.893Z,74.3
2022-09-28T04:10:14.735Z,74.4
2022-09-28T04:11:14.726Z,74.4
2022-09-28T04:12:14.748Z,74.4
2022-09-28T04:13:14.725Z,73.9
2022-09-28T04:14:14.723Z,74.2
2022-09-28T04:15:14.725Z,74.2
2022-09-28T04:16:14.767Z,74.1
2022-09-28T04:17:14.733Z,74.2
2022-09-28T04:19:14.774Z,73.9
2022-09-28T04:20:14.730Z,74.4
2022-09-28T04:21:14.724Z,74.7
2022-09-28T04:22:14.727Z,74.7
2022-09-28T04:23:14.734Z,74.6
2022-09-28T04:24:14.729Z,74.5
2022-09-28T04:25:14.730Z,74.3
2022-09-28T04:26:14.730Z,74.3
2022-09-28T04:27:14.725Z,74.3
2022-09-28T04:28:14.731Z,74
2022-09-28T04:29:14.722Z,73.8
2022-09-28T04:30:14.731Z,73.5
2022-09-28T04:31:14.855Z,73.4
2022-09-28T04:32:14.740Z,73.4
2022-09-28T04:33:14.728Z,73.4
2022-09-28T04:34:14.748Z,73.3
2022-09-28T04:35:14.738Z,73.3
2022-09-28T04:36:14.731Z,73.6
2022-09-28T04:37:14.730Z,73.9
2022-09-28T04:38:14.764Z,74.3
2022-09-28T04:39:14.865Z,74.1
2022-09-28T04:40:14.945Z,74
2022-09-28T04:41:14.741Z,73.6
2022-09-28T04:42:14.732Z,73.6
2022-09-28T04:43:14.739Z,73.5
2022-09-28T04:44:14.731Z,73.5
2022-09-28T04:45:14.732Z,73.4
2022-09-28T04:46:14.858Z,73.6
2022-09-28T04:47:14.734Z,73.3
2022-09-28T04:48:14.732Z,73.2
2022-09-28T04:49:14.969Z,73.1
2022-09-28T04:50:14.735Z,73.4
2022-09-28T04:51:14.725Z,73.5
2022-09-28T04:52:18.295Z,73.1
2022-09-28T04:53:14.765Z,73.2
2022-09-28T04:54:14.728Z,72.8
2022-09-28T04:55:14.733Z,73
2022-09-28T04:56:14.725Z,73.1
2022-09-28T04:57:14.733Z,73.6
2022-09-28T04:58:14.732Z,73.5
2022-09-28T04:59:14.837Z,73.8
2022-09-28T05:00:14.733Z,73.7
2022-09-28T05:01:14.791Z,73.5
2022-09-28T05:02:14.795Z,73.5
2022-09-28T05:03:14.737Z,73.9
2022-09-28T05:04:14.744Z,73.8
2022-09-28T05:05:14.731Z,74
2022-09-28T05:06:14.729Z,73.8
2022-09-28T05:07:14.730Z,73.7
2022-09-28T05:08:14.737Z,73.7
2022-09-28T05:09:14.882Z,73.6
2022-09-28T05:10:14.739Z,73.5
2022-09-28T05:11:14.738Z,73.7
2022-09-28T05:12:14.736Z,73.9
2022-09-28T05:13:14.740Z,74.2
2022-09-28T05:14:14.768Z,74.3
2022-09-28T05:15:14.736Z,74.3
2022-09-28T05:16:14.796Z,74.2
2022-09-28T05:17:14.736Z,74.1
2022-09-28T05:18:14.742Z,74.1
2022-09-28T05:19:14.935Z,73.9
2022-09-28T05:20:14.755Z,74
2022-09-28T05:21:14.734Z,74.1
2022-09-28T05:22:14.804Z,74.2
2022-09-28T05:23:14.733Z,74.6
2022-09-28T05:24:14.754Z,74.8
2022-09-28T05:25:14.737Z,74.7
2022-09-28T05:26:14.731Z,74.7
2022-09-28T05:27:14.736Z,74.2
2022-09-28T05:28:14.738Z,74.3
2022-09-28T05:29:14.891Z,74.2
2022-09-28T05:30:14.729Z,74.2
2022-09-28T05:31:14.986Z,73.9
2022-09-28T05:32:14.740Z,74.1
2022-09-28T05:33:14.730Z,74.1
2022-09-28T05:34:14.737Z,74
2022-09-28T05:35:14.737Z,73.8
2022-09-28T05:36:14.728Z,73.5
2022-09-28T05:37:14.733Z,73.7
2022-09-28T05:38:15.034Z,73.7
2022-09-28T05:39:14.809Z,73.6
2022-09-28T05:40:14.949Z,73.4
2022-09-28T05:41:14.740Z,73.2
2022-09-28T05:42:14.739Z,73.1
2022-09-28T05:43:14.733Z,73
2022-09-28T05:44:14.858Z,73.1
2022-09-28T05:45:14.753Z,73
2022-09-28T05:46:14.939Z,73.3
2022-09-28T05:47:14.737Z,73
2022-09-28T05:48:14.731Z,73.7
2022-09-28T05:49:14.739Z,74.1
2022-09-28T05:51:14.735Z,74.2
2022-09-28T05:52:14.744Z,74.4
2022-09-28T05:53:14.734Z,74.3
2022-09-28T05:54:14.839Z,73.9
2022-09-28T05:55:14.737Z,73.6
2022-09-28T05:56:14.736Z,73.7
2022-09-28T05:57:14.740Z,73.8
2022-09-28T05:58:14.733Z,73.4
2022-09-28T05:59:14.735Z,73.5
2022-09-28T06:00:14.739Z,73.6
2022-09-28T06:01:14.815Z,73.8
2022-09-28T06:02:14.776Z,74
2022-09-28T06:03:14.745Z,74
2022-09-28T06:04:14.962Z,73.8
2022-09-28T06:05:14.741Z,73.7
2022-09-28T06:06:14.737Z,73.8
2022-09-28T06:07:14.736Z,73.9
2022-09-28T06:08:14.734Z,74
2022-09-28T06:09:14.743Z,73.9
2022-09-28T06:10:14.735Z,73.7
2022-09-28T06:11:14.775Z,74
2022-09-28T06:12:14.733Z,73.9
2022-09-28T06:13:14.744Z,74
2022-09-28T06:14:15.001Z,73.8
2022-09-28T06:15:14.736Z,73.9
2022-09-28T06:16:14.789Z,73.8
2022-09-28T06:17:14.739Z,74
2022-09-28T06:18:14.744Z,73.9
2022-09-28T06:19:14.737Z,74
2022-09-28T06:20:14.742Z,74.2
2022-09-28T06:21:14.737Z,74.3
2022-09-28T06:22:14.741Z,74.2
2022-09-28T06:23:14.735Z,74
2022-09-28T06:24:14.849Z,73.7
2022-09-28T06:25:14.734Z,73.8
2022-09-28T06:26:15.054Z,73.7
2022-09-28T06:27:14.735Z,73.5
2022-09-28T06:28:14.749Z,73.8
2022-09-28T06:29:18.681Z,73.9
2022-09-28T06:30:14.745Z,73.8
2022-09-28T06:31:14.858Z,74.2
2022-09-28T06:32:14.741Z,74.3
2022-09-28T06:33:14.742Z,74.6
2022-09-28T06:34:14.917Z,74.6
2022-09-28T06:35:14.738Z,74.7
2022-09-28T06:36:14.739Z,74.8
2022-09-28T06:37:14.742Z,75
2022-09-28T06:38:14.741Z,75
2022-09-28T06:39:14.742Z,75.2
2022-09-28T06:40:14.746Z,75.6
2022-09-28T06:41:14.742Z,75.7
2022-09-28T06:42:14.776Z,75.7
2022-09-28T06:43:14.767Z,76.1
2022-09-28T06:44:14.944Z,76.4
2022-09-28T06:46:14.790Z,76.2
2022-09-28T06:47:14.765Z,76
2022-09-28T06:48:14.739Z,75.9
2022-09-28T06:49:19.213Z,75.8
2022-09-28T06:50:14.738Z,75.8
2022-09-28T06:51:14.740Z,76.3
2022-09-28T06:52:14.745Z,76
2022-09-28T06:53:14.749Z,76.1
2022-09-28T06:54:14.886Z,76.1
2022-09-28T06:55:14.746Z,75.9
2022-09-28T06:56:14.746Z,75.8
2022-09-28T06:57:14.738Z,75.8
2022-09-28T06:58:14.741Z,75.9
2022-09-28T06:59:14.747Z,76.2
2022-09-28T07:00:14.743Z,76.2
2022-09-28T07:01:14.831Z,76.2
2022-09-28T07:02:14.856Z,76.2
2022-09-28T07:03:14.754Z,75.9
2022-09-28T07:04:14.791Z,75.9
2022-09-28T07:05:14.745Z,75.8
2022-09-28T07:06:14.756Z,75.8
2022-09-28T07:07:14.743Z,75.4
2022-09-28T07:08:14.738Z,75.3
2022-09-28T07:09:30.616Z,75.1
2022-09-28T07:10:14.746Z,75.2
2022-09-28T07:11:14.745Z,75.5
2022-09-28T07:12:14.747Z,75.3
2022-09-28T07:13:39.979Z,75.1
2022-09-28T07:14:26.527Z,75.3
2022-09-28T07:15:14.742Z,75.8
2022-09-28T07:16:14.792Z,75.9
2022-09-28T07:17:15.195Z,75.7
2022-09-28T07:18:14.794Z,75.8
2022-09-28T07:19:14.755Z,76
2022-09-28T07:20:19.192Z,76
2022-09-28T07:21:26.754Z,76
2022-09-28T07:22:18.485Z,76.1
2022-09-28T07:23:19.405Z,76.1
2022-09-28T07:24:14.817Z,76
2022-09-28T07:25:14.743Z,75.9
2022-09-28T07:26:14.854Z,75.9
2022-09-28T07:27:14.744Z,75.9
2022-09-28T07:28:14.755Z,75.7
2022-09-28T07:29:14.746Z,75.4
2022-09-28T07:30:14.752Z,75.4
2022-09-28T07:31:14.913Z,75
2022-09-28T07:32:14.749Z,74.9
2022-09-28T07:33:14.809Z,75.1
2022-09-28T07:34:14.830Z,75.1
2022-09-28T07:35:14.745Z,74.9
2022-09-28T07:36:14.744Z,75
2022-09-28T07:37:14.742Z,75.6
2022-09-28T07:38:14.746Z,75.5
2022-09-28T07:39:14.745Z,75.5
2022-09-28T07:40:14.751Z,75.5
2022-09-28T07:41:14.758Z,75.6
2022-09-28T07:42:14.741Z,75.5
2022-09-28T07:43:14.747Z,75.4
2022-09-28T07:44:14.839Z,75.2
2022-09-28T07:45:14.750Z,75.2
2022-09-28T07:46:14.957Z,74.9
2022-09-28T07:47:14.754Z,75.1
2022-09-28T07:48:14.753Z,75.1
2022-09-28T07:49:14.824Z,75
2022-09-28T07:50:14.748Z,75.1
2022-09-28T07:51:14.742Z,75
2022-09-28T07:52:14.772Z,74.6
2022-09-28T07:53:14.748Z,74.8
2022-09-28T07:54:14.757Z,74.8
2022-09-28T07:55:14.750Z,74.8
2022-09-28T07:56:14.753Z,74.8
2022-09-28T07:57:14.746Z,74.7
2022-09-28T07:58:14.759Z,75
2022-09-28T07:59:14.856Z,75.4
2022-09-28T08:00:14.755Z,75.1
2022-09-28T08:01:14.844Z,75.3
2022-09-28T08:02:14.818Z,75.2
2022-09-28T08:03:14.760Z,75.4
2022-09-28T08:04:14.748Z,75.2
2022-09-28T08:05:14.756Z,75.2
2022-09-28T08:06:14.754Z,75.4
2022-09-28T08:07:14.749Z,75.4
2022-09-28T08:08:14.745Z,75.4
2022-09-28T08:09:14.801Z,75.4
2022-09-28T08:10:14.754Z,75.6
2022-09-28T08:11:14.756Z,75.8
2022-09-28T08:12:14.759Z,75.8
2022-09-28T08:13:14.750Z,75.5
2022-09-28T08:14:14.847Z,75.4
2022-09-28T08:15:14.774Z,75.5
2022-09-28T08:16:14.902Z,75.8
2022-09-28T08:17:14.757Z,76.1
2022-09-28T08:18:14.761Z,76.5
2022-09-28T08:19:14.849Z,76.4
2022-09-28T08:20:14.749Z,76.5
2022-09-28T08:21:14.753Z,76.3
2022-09-28T08:22:14.749Z,75.9
2022-09-28T08:23:14.765Z,75.4
2022-09-28T08:24:14.817Z,75
2022-09-28T08:25:14.754Z,74.8
2022-09-28T08:26:15.765Z,74.7
2022-09-28T08:28:14.753Z,74.4
2022-09-28T08:29:14.746Z,74.8
2022-09-28T08:30:14.756Z,75
2022-09-28T08:31:14.908Z,74.6
2022-09-28T08:32:14.752Z,74.8
2022-09-28T08:33:14.756Z,74.9
2022-09-28T08:34:14.857Z,75
2022-09-28T08:35:14.758Z,75.3
2022-09-28T08:36:14.758Z,75.2
2022-09-28T08:37:14.755Z,75.4
2022-09-28T08:38:14.750Z,75.2
2022-09-28T08:39:14.751Z,75
2022-09-28T08:40:14.758Z,74.8
2022-09-28T08:41:14.754Z,74.5
2022-09-28T08:42:14.749Z,74.1
2022-09-28T08:43:14.761Z,73.9
2022-09-28T08:44:14.837Z,74.1
2022-09-28T08:45:14.767Z,73.9
2022-09-28T08:46:14.874Z,73.9
2022-09-28T08:47:14.765Z,73.5
2022-09-28T08:49:24.893Z,73.7
2022-09-28T08:50:14.757Z,73.7
2022-09-28T08:51:14.756Z,73.5
2022-09-28T08:52:14.750Z,74.4
2022-09-28T08:53:14.759Z,73.9
2022-09-28T08:54:14.769Z,73.8
2022-09-28T08:55:14.753Z,74.2
2022-09-28T08:56:14.755Z,73.7
2022-09-28T08:57:14.751Z,73.1
2022-09-28T08:58:14.760Z,72.7
2022-09-28T08:59:14.756Z,72.6
2022-09-28T09:00:14.758Z,72.4
2022-09-28T09:01:14.821Z,72.7
2022-09-28T09:02:14.858Z,72.6
2022-09-28T09:03:14.754Z,72.5
2022-09-28T09:04:14.849Z,72.2
2022-09-28T09:05:14.860Z,72.4
2022-09-28T09:06:18.326Z,72.1
2022-09-28T09:07:14.758Z,71.5
2022-09-28T09:08:14.750Z,71.4
2022-09-28T09:09:14.780Z,71.6
2022-09-28T09:10:14.749Z,72.5
2022-09-28T09:11:14.769Z,72.7
2022-09-28T09:12:14.756Z,72.1
2022-09-28T09:13:14.778Z,71.7
2022-09-28T09:14:14.759Z,71.4
2022-09-28T09:15:14.754Z,71.2
2022-09-28T09:16:14.837Z,71.1
2022-09-28T09:17:14.791Z,71.2
2022-09-28T09:18:17.835Z,70.8
2022-09-28T09:19:14.753Z,71.4
2022-09-28T09:20:14.754Z,71.3
2022-09-28T09:21:14.761Z,71.5
2022-09-28T09:22:14.763Z,71.9
2022-09-28T09:23:14.760Z,71.9
2022-09-28T09:24:14.809Z,72.1
2022-09-28T09:25:14.771Z,71.8
2022-09-28T09:26:17.322Z,72.2
2022-09-28T09:27:14.760Z,72.4
2022-09-28T09:28:14.766Z,72.3
2022-09-28T09:29:14.749Z,72.3
2022-09-28T09:30:17.806Z,72.1
2022-09-28T09:31:14.794Z,71.8
2022-09-28T09:32:14.838Z,71.7
2022-09-28T09:33:14.763Z,71.4
2022-09-28T09:34:14.966Z,71.7
2022-09-28T09:35:14.808Z,71.4
2022-09-28T09:36:14.764Z,70.3
2022-09-28T09:37:14.754Z,70.6
2022-09-28T09:38:14.756Z,70.8
2022-09-28T09:39:14.769Z,69.8
2022-09-28T09:40:14.754Z,69.8
2022-09-28T09:41:14.884Z,69.9
2022-09-28T09:42:14.762Z,69.6
2022-09-28T09:43:14.764Z,69.7
2022-09-28T09:44:14.831Z,69.9
2022-09-28T09:45:14.767Z,69.6
2022-09-28T09:46:14.856Z,70
2022-09-28T09:48:14.792Z,70.8
2022-09-28T09:49:14.764Z,70.9
2022-09-28T09:50:14.760Z,70.1
2022-09-28T09:51:14.760Z,69.5
2022-09-28T09:52:14.768Z,69.1
2022-09-28T09:53:14.760Z,68.7
2022-09-28T09:54:14.765Z,68.8
2022-09-28T09:55:14.767Z,69.8
2022-09-28T09:56:14.770Z,69.8
2022-09-28T09:57:14.761Z,69.4
2022-09-28T09:58:14.764Z,69.6
2022-09-28T09:59:14.873Z,69.6
2022-09-28T10:00:14.765Z,69.8
2022-09-28T10:01:14.829Z,68.7
2022-09-28T10:02:14.831Z,68.6
2022-09-28T10:03:14.763Z,68.8
2022-09-28T10:04:14.769Z,68.1
2022-09-28T10:05:14.791Z,68.3
2022-09-28T10:06:14.767Z,68.4
2022-09-28T10:07:14.762Z,68.2
2022-09-28T10:08:14.762Z,68
2022-09-28T10:09:14.763Z,68.1
2022-09-28T10:10:14.764Z,68.2
2022-09-28T10:11:14.761Z,67.8
2022-09-28T10:12:14.776Z,68.1
2022-09-28T10:13:14.766Z,68.1
2022-09-28T10:14:14.770Z,67.7
2022-09-28T10:15:14.767Z,67.7
2022-09-28T10:16:14.797Z,68
2022-09-28T10:17:14.767Z,67.3
2022-09-28T10:18:14.760Z,67.5
2022-09-28T10:19:14.805Z,68.1
2022-09-28T10:20:14.778Z,68.3
2022-09-28T10:21:14.767Z,68
2022-09-28T10:22:14.770Z,68.2
2022-09-28T10:23:14.764Z,68.2
2022-09-28T10:24:14.777Z,68.3
2022-09-28T10:25:14.760Z,68.6
2022-09-28T10:26:14.769Z,68.1
2022-09-28T10:27:14.771Z,67.6
2022-09-28T10:28:14.766Z,67.4
2022-09-28T10:29:14.917Z,67.6
2022-09-28T10:30:14.766Z,67.6
2022-09-28T10:31:14.769Z,67.8
2022-09-28T10:32:14.769Z,68.1
2022-09-28T10:33:14.768Z,68.7
2022-09-28T10:34:14.994Z,68.9
2022-09-28T10:35:14.766Z,68.7
2022-09-28T10:36:14.771Z,68.6
2022-09-28T10:37:14.767Z,68.7
2022-09-28T10:38:14.768Z,68
2022-09-28T10:39:14.774Z,68
2022-09-28T10:40:14.763Z,67.8
2022-09-28T10:41:14.772Z,67.3
2022-09-28T10:42:14.769Z,67.3
2022-09-28T10:43:14.780Z,67
2022-09-28T10:44:14.933Z,66.9
2022-09-28T10:45:14.779Z,66.9
2022-09-28T10:46:14.935Z,67.7
2022-09-28T10:47:14.787Z,67.2
2022-09-28T10:48:14.769Z,66.6
2022-09-28T10:49:14.772Z,66.3
2022-09-28T10:50:14.793Z,66.1
2022-09-28T10:51:14.774Z,66.7
2022-09-28T10:52:14.767Z,66.6
2022-09-28T10:53:14.772Z,66.5
2022-09-28T10:54:14.857Z,66.5
2022-09-28T10:55:14.781Z,65.7
2022-09-28T10:56:14.780Z,65.3
2022-09-28T10:57:14.783Z,64.1
2022-09-28T10:58:14.775Z,63.8
2022-09-28T10:59:14.766Z,64.2
2022-09-28T11:00:14.773Z,63.9
2022-09-28T11:01:14.846Z,63.9
2022-09-28T11:02:14.865Z,64.8
2022-09-28T11:03:14.777Z,64.7
2022-09-28T11:04:14.850Z,64
2022-09-28T11:05:14.785Z,63.9
2022-09-28T11:06:14.779Z,63.8
2022-09-28T11:07:17.205Z,62.8
2022-09-28T11:08:14.788Z,63.1
2022-09-28T11:09:14.834Z,63
2022-09-28T11:10:14.775Z,63.3
2022-09-28T11:11:14.773Z,63
2022-09-28T11:12:14.780Z,63.1
2022-09-28T11:13:14.782Z,62.9
2022-09-28T11:14:14.786Z,63
2022-09-28T11:15:14.794Z,62.7
2022-09-28T11:16:14.871Z,62.6
2022-09-28T11:17:14.772Z,63
2022-09-28T11:18:14.776Z,62.9
2022-09-28T11:19:14.930Z,62
2022-09-28T11:20:14.772Z,60.9
2022-09-28T11:21:14.813Z,61.4
2022-09-28T11:22:14.776Z,61.9
2022-09-28T11:23:14.775Z,62.1
2022-09-28T11:24:18.857Z,62.1
2022-09-28T11:25:14.793Z,61.6
2022-09-28T11:26:18.347Z,61.2
2022-09-28T11:27:14.780Z,61.6
2022-09-28T11:28:14.788Z,62.4
2022-09-28T11:29:14.793Z,62.4
2022-09-28T11:30:14.781Z,62.6
2022-09-28T11:31:14.899Z,62.8
2022-09-28T11:32:15.983Z,63.1
2022-09-28T11:33:14.787Z,63.1
2022-09-28T11:34:14.872Z,63.7
2022-09-28T11:35:14.781Z,63.8
2022-09-28T11:36:14.779Z,64.3
2022-09-28T11:37:14.779Z,64.3
2022-09-28T11:38:14.776Z,64.5
2022-09-28T11:39:14.814Z,64.5
2022-09-28T11:40:14.790Z,64.2
2022-09-28T11:41:14.795Z,65.1
2022-09-28T11:42:16.484Z,65.4
2022-09-28T11:43:16.744Z,65.6
2022-09-28T11:44:14.779Z,65.7
2022-09-28T11:45:14.776Z,65.7
2022-09-28T11:46:14.898Z,65.7
2022-09-28T11:48:14.789Z,66.1
2022-09-28T11:49:14.784Z,65.9
2022-09-28T11:50:16.276Z,65.8
2022-09-28T11:51:14.779Z,65.6
2022-09-28T11:52:14.807Z,65.4
2022-09-28T11:53:14.785Z,65.5
2022-09-28T11:54:14.850Z,65.1
2022-09-28T11:55:14.778Z,64.6
2022-09-28T11:56:14.779Z,65.1
2022-09-28T11:57:14.781Z,64.9
2022-09-28T11:58:14.782Z,65.1
2022-09-28T11:59:14.786Z,65.3
2022-09-28T12:00:14.844Z,65.1
2022-09-28T12:01:18.779Z,64.5
2022-09-28T12:02:14.907Z,64.7
2022-09-28T12:03:14.867Z,64.9
2022-09-28T12:04:14.790Z,64.8
2022-09-28T12:05:20.554Z,64.7
2022-09-28T12:06:14.791Z,64.6
2022-09-28T12:07:14.784Z,64.3
2022-09-28T12:08:14.782Z,64.3
2022-09-28T12:09:14.840Z,64.4
2022-09-28T12:10:14.921Z,64.1
2022-09-28T12:11:14.782Z,64
2022-09-28T12:12:14.791Z,64
2022-09-28T12:13:14.786Z,63.7
2022-09-28T12:14:14.786Z,63.6
2022-09-28T12:15:14.789Z,63.8
2022-09-28T12:16:38.797Z,63.7
2022-09-28T12:17:19.329Z,63.6
2022-09-28T12:18:14.847Z,63.7
2022-09-28T12:19:14.830Z,63.6
2022-09-28T12:20:14.956Z,63.1
2022-09-28T12:21:14.787Z,62.9
2022-09-28T12:22:14.864Z,62.9
2022-09-28T12:23:14.828Z,63.6
2022-09-28T12:24:14.791Z,63.8
2022-09-28T12:25:14.787Z,63.2
2022-09-28T12:26:14.787Z,63.1
2022-09-28T12:27:14.784Z,62.4
2022-09-28T12:28:14.792Z,61.6
2022-09-28T12:29:14.792Z,62.2
2022-09-28T12:30:14.784Z,62.5
2022-09-28T12:31:14.841Z,61.9
2022-09-28T12:32:14.789Z,61.8
2022-09-28T12:33:14.797Z,61.6
2022-09-28T12:34:14.792Z,61.1
2022-09-28T12:35:14.806Z,60.5
2022-09-28T12:36:14.788Z,60.7
2022-09-28T12:37:14.786Z,60.6
2022-09-28T12:38:14.785Z,60.3
2022-09-28T12:39:21.660Z,60.1
2022-09-28T12:40:14.800Z,60.6
2022-09-28T12:41:14.795Z,60.9
2022-09-28T12:42:14.783Z,61.3
2022-09-28T12:43:14.818Z,61.2
2022-09-28T12:44:14.786Z,60.5
2022-09-28T12:45:14.818Z,60.3
2022-09-28T12:46:14.844Z,60.4
2022-09-28T12:47:14.853Z,60.6
2022-09-28T12:48:14.796Z,60.4
2022-09-28T12:51:14.788Z,59.9
2022-09-28T12:52:14.796Z,59.8
2022-09-28T12:53:14.791Z,60.8
2022-09-28T12:54:14.920Z,60.7
2022-09-28T12:55:14.804Z,60.2
2022-09-28T12:56:16.827Z,60.5
2022-09-28T12:57:14.795Z,60.1
2022-09-28T12:58:14.802Z,60.2
2022-09-28T12:59:14.901Z,60.3
2022-09-28T13:00:14.803Z,60.2
2022-09-28T13:01:14.833Z,60.4
2022-09-28T13:02:14.900Z,60.9
2022-09-28T13:03:14.804Z,60.2
2022-09-28T13:04:14.801Z,60.6
2022-09-28T13:05:14.798Z,60.3
2022-09-28T13:06:14.789Z,59.8
2022-09-28T13:07:14.798Z,59.2
2022-09-28T13:08:14.800Z,58.9
2022-09-28T13:09:14.867Z,58.6
2022-09-28T13:10:14.793Z,58.9
2022-09-28T13:11:14.796Z,57.8
2022-09-28T13:12:14.793Z,58.3
2022-09-28T13:13:14.816Z,58
2022-09-28T13:14:14.798Z,58.6
2022-09-28T13:15:14.795Z,59
2022-09-28T13:16:14.915Z,58.1
2022-09-28T13:17:14.795Z,58.1
2022-09-28T13:18:14.804Z,57.5
2022-09-28T13:19:14.850Z,57.4
2022-09-28T13:20:14.794Z,56.1
2022-09-28T13:21:14.798Z,55.4
2022-09-28T13:22:14.810Z,56.4
2022-09-28T13:23:14.800Z,57
2022-09-28T13:24:31.588Z,57.2
2022-09-28T13:25:14.814Z,57.2
2022-09-28T13:26:14.805Z,56.1
2022-09-28T13:27:14.807Z,56.6
2022-09-28T13:28:14.799Z,56.6
2022-09-28T13:29:14.856Z,56.7
2022-09-28T13:30:14.799Z,57.3
2022-09-28T13:31:14.797Z,56.5
2022-09-28T13:32:14.810Z,56.7
2022-09-28T13:33:14.806Z,57.8
2022-09-28T13:34:14.887Z,58.1
2022-09-28T13:35:14.810Z,57.7
2022-09-28T13:36:14.810Z,57.1
2022-09-28T13:37:14.800Z,56.8